Historyczne dane pomiarowe

Dodano dane terminowe – wersja testowa.

Dane z okresu 1951-2019

Wersja bazy: 1.34 [2019-03-16, lista zmian], aktualizacja planowana na 2019-04-15

Dane meteo z obszaru Polski uzyskane na podstawie danych udostępnionych przez Instytut Meteorologii i Gospodarki Wodnej – Państwowy Instytut Badawczy.

 

Wybierz Datę:    

       

TemperaturaWilgotnośćWiatrCiśnienieOpadyŚniegCzas trwania zjawisk
 Stacja t tx tn tng RH VA  wxwx mslp ppp RRR   cm mm wxwxwxwxwxwxwx
1983-08-14 11.9 15.8 9.3 8.1 74.0- 5.0 3.7---- 0.0------------
1983-08-13 13.5 20.0 10.5 10.4 75.0- 7.0 3.7---- 3.2------------
1983-08-12 18.6 25.2 11.8 10.0 70.0- 3.3 1.3---- 3.5------------
1983-08-11 17.8 25.4 10.0 9.0 69.3- 0.7 1.0---- 0.0------------
1983-08-10 18.1 25.5 11.7 10.4 84.0- 4.7 1.0---- 0.0------------
1983-08-09 16.5 22.5 12.4 11.7 85.0- 6.0 0.7---- 0.2------------
1983-08-08 17.2 22.0 12.7 10.2 83.5- 5.7 1.3---- 3.3------------
1983-08-07 13.1 14.9 9.6 8.5 90.3- 8.0 1.0---- 2.4------------
1983-08-06 13.0 16.0 11.0 11.2 87.8- 7.7 1.0---- 0.1------------
1983-08-05 11.0 14.7 8.0 7.8 84.8- 7.3 1.7---- 0.3------------
1983-08-04 8.9 10.0 8.1 8.3 91.5- 8.0 6.0---- 12.4------------
1983-08-03 12.5 20.4 9.5 10.4 94.0- 8.0 5.0---- 25.4------------
1983-08-02 19.4 28.4 16.8 16.0 72.5- 7.0 3.7---- 0.3------------
1983-08-01 23.8 32.1 11.5 8.6 44.3- 0.0 2.3---- 0.3------------
1983-07-31 19.0 27.9 7.6 5.9 53.0- 0.3 1.7---- 0.0------------
1983-07-30 18.4 23.6 14.0 14.0 67.0- 4.0 4.7---- 0.0------------
1983-07-29 17.9 23.4 14.6 12.6 67.8- 6.3 5.0---- 0.5------------
1983-07-28 23.0 28.7 19.6 17.4 55.5- 5.7 2.7---- 0.4------------
1983-07-27 24.7 34.9 12.6 10.6 50.0- 1.7 1.3---- 0.0------------
1983-07-26 20.1 28.6 9.2 7.2 56.0- 0.0 0.7---- 0.0------------
1983-07-25 16.9 23.7 7.4 6.0 68.3- 1.0 2.0---- 0.0------------
1983-07-24 18.1 25.5 9.1 7.2 68.3- 2.7 2.0---- 0.6------------
1983-07-23 18.7 24.7 12.4 11.1 65.8- 2.3 4.0---- 0.0------------
1983-07-22 14.9 20.6 9.3 8.0 65.8- 7.0 3.7---- 0.0------------
1983-07-21 11.1 15.8 7.2 6.0 66.3- 4.7 5.3---- 0.0------------
1983-07-20 13.4 18.7 9.5 11.1 80.5- 6.7 4.7---- 3.6------------
1983-07-19 21.2 27.8 16.7 14.5 68.8- 3.0 2.0---- 9.4------------
1983-07-18 24.0 32.7 14.2 11.9 53.8- 2.0 1.0---- 0.0------------
1983-07-17 21.6 27.8 14.5 12.0 65.3- 2.7 2.3---- 0.0------------
1983-07-16 19.1 27.3 11.2 8.9 65.5- 3.7 1.7---- 3.3------------
1983-07-15 19.0 25.0 13.6 11.3 70.5- 4.0 2.0---- 0.0------------
1983-07-14 16.5 19.4 13.7 14.3 76.0- 6.3 3.3---- 0.0------------
1983-07-13 18.6 24.7 13.2 11.3 73.5- 3.7 3.3---- 1.0------------
1983-07-12 20.3 27.4 16.6 14.6 63.3- 5.3 4.3---- 3.4------------
1983-07-11 20.7 27.5 11.2 10.3 60.8- 3.3 1.7---- 0.0------------
1983-07-10 20.8 27.6 10.8 8.8 57.0- 1.0 2.0---- 0.0------------
1983-07-09 19.7 27.1 8.4 7.0 51.8- 0.0 1.7---- 0.0------------
1983-07-08 19.5 25.8 9.0 8.2 48.8- 0.0 1.3---- 0.0------------
1983-07-07 22.0 28.1 13.1 11.4 65.0- 0.7 1.7---- 0.0------------
1983-07-06 20.0 26.6 10.4 9.2 66.0- 0.7 1.7---- 0.0------------
1983-07-05 17.9 23.8 9.7 8.2 74.5- 0.3 1.7---- 0.0------------
1983-07-04 18.0 24.5 8.5 7.3 64.8- 2.0 0.7---- 0.0------------
1983-07-03 16.7 22.8 8.0 6.9 64.8- 1.7 1.3---- 0.0------------
1983-07-02 15.7 19.4 11.7 12.3 74.3- 5.0 1.3---- 0.0------------
1983-07-01 17.5 22.7 12.3 9.9 64.5- 6.3 1.7---- 0.8------------
1983-06-30 17.5 22.7 9.0 6.6 57.5- 2.0 2.0---- 0.0------------
1983-06-29 13.5 18.6 6.3 3.7 60.8- 4.0 2.0---- 0.0------------
1983-06-28 13.6 16.4 11.5 11.8 73.0- 5.0 2.7---- 0.0------------
1983-06-27 18.1 24.0 14.3 12.2 75.5- 4.7 2.0---- 8.4------------
1983-06-26 18.3 23.2 14.0 12.1 78.3- 5.3 2.0---- 3.7------------
1983-06-25 21.1 26.9 13.7 11.9 55.0- 3.7 1.0---- 0.0------------
1983-06-24 18.2 25.5 7.0 4.3 46.0- 0.0 2.0---- 0.0------------
1983-06-23 13.6 20.1 3.4 1.6 57.3- 0.0 2.0---- 0.0------------
1983-06-22 13.6 20.3 9.2 6.3 72.8- 4.0 2.0---- 0.0------------
1983-06-21 17.5 22.8 8.7 7.2 67.0- 0.7 2.3---- 0.0------------
1983-06-20 15.5 19.1 11.4 11.4 82.8- 5.3 2.0---- 0.0------------
1983-06-19 12.3 14.4 10.1 10.3 86.8- 7.7 3.3---- 2.1------------
1983-06-18 9.3 13.5 2.7 1.6 84.3- 8.0 2.7---- 0.3------------
1983-06-17 9.6 11.9 7.5 6.4 70.5- 6.7 2.7---- 0.0------------
1983-06-16 9.5 12.3 7.0 7.3 80.5- 6.3 4.7---- 0.4------------
270.8 ms

 

Źródłem pochodzenia danych jest Instytut Meteorologii i Gospodarki Wodnej – Państwowy Instytut Badawczy. Dane Instytutu Meteorologii i Gospodarki Wodnej – Państwowego Instytutu Badawczego zostały przetworzone.

Dane źródłowe można odnaleźć na stronie https://dane.imgw.pl